<?xml version="1.0" encoding="UTF-8" standalone="no" ?>
<gpx xmlns="http://www.topografix.com/GPX/1/1" xmlns:xsi="http://www.w3.org/2001/XMLSchema-instance" xsi:schemaLocation="http://www.topografix.com/GPX/1/1 http://www.topografix.com/GPX/1/1/gpx.xsd" version="1.1" creator="VisuGPX - https://www.visugpx.com">
  <metadata>
    <name>Saint-Pierre-la-Palud VTT</name>
  </metadata>
  <trk>
    <name><![CDATA[Saint-Pierre-la-Palud VTT 24 oct. 2021 à 14:04]]></name>
    <trkseg>
      <trkpt lat="45.77596" lon="4.63851">
        <ele>602.35337</ele>
        <time>2021-10-24T12:04:52.000Z</time>
      </trkpt>
      <trkpt lat="45.77593" lon="4.63846">
        <ele>602.24685</ele>
        <time>2021-10-24T12:10:58.000Z</time>
      </trkpt>
      <trkpt lat="45.77367" lon="4.63816">
        <ele>646.92448</ele>
        <time>2021-10-24T12:12:00.000Z</time>
      </trkpt>
      <trkpt lat="45.77382" lon="4.63855">
        <ele>640.80605</ele>
        <time>2021-10-24T12:13:06.000Z</time>
      </trkpt>
      <trkpt lat="45.77314" lon="4.63824">
        <ele>654.60137</ele>
        <time>2021-10-24T12:14:03.000Z</time>
      </trkpt>
      <trkpt lat="45.77251" lon="4.63826">
        <ele>657.06912</ele>
        <time>2021-10-24T12:15:03.000Z</time>
      </trkpt>
      <trkpt lat="45.77285" lon="4.63805">
        <ele>659.38051</ele>
        <time>2021-10-24T12:15:57.000Z</time>
      </trkpt>
      <trkpt lat="45.77285" lon="4.63805">
        <ele>659.35915</ele>
        <time>2021-10-24T12:16:46.000Z</time>
      </trkpt>
      <trkpt lat="45.77248" lon="4.6382">
        <ele>657.8828</ele>
        <time>2021-10-24T12:17:07.000Z</time>
      </trkpt>
      <trkpt lat="45.77251" lon="4.63817">
        <ele>658.12888</ele>
        <time>2021-10-24T12:17:49.000Z</time>
      </trkpt>
      <trkpt lat="45.77218" lon="4.63718">
        <ele>670.32486</ele>
        <time>2021-10-24T12:19:12.000Z</time>
      </trkpt>
      <trkpt lat="45.77227" lon="4.63731">
        <ele>668.34967</ele>
        <time>2021-10-24T12:19:33.000Z</time>
      </trkpt>
      <trkpt lat="45.77224" lon="4.63734">
        <ele>668.05803</ele>
        <time>2021-10-24T12:19:54.000Z</time>
      </trkpt>
      <trkpt lat="45.77213" lon="4.6373">
        <ele>669.23324</ele>
        <time>2021-10-24T12:20:14.000Z</time>
      </trkpt>
      <trkpt lat="45.77171" lon="4.63708">
        <ele>677.41076</ele>
        <time>2021-10-24T12:21:40.000Z</time>
      </trkpt>
      <trkpt lat="45.7712" lon="4.63692">
        <ele>688.07147</ele>
        <time>2021-10-24T12:22:38.000Z</time>
      </trkpt>
      <trkpt lat="45.77082" lon="4.63652">
        <ele>700.37987</ele>
        <time>2021-10-24T12:23:38.000Z</time>
      </trkpt>
      <trkpt lat="45.77052" lon="4.63696">
        <ele>691.9978</ele>
        <time>2021-10-24T12:24:37.000Z</time>
      </trkpt>
      <trkpt lat="45.76989" lon="4.63702">
        <ele>701.52289</ele>
        <time>2021-10-24T12:25:37.000Z</time>
      </trkpt>
      <trkpt lat="45.76961" lon="4.63649">
        <ele>706.91685</ele>
        <time>2021-10-24T12:26:37.000Z</time>
      </trkpt>
      <trkpt lat="45.76937" lon="4.63569">
        <ele>712.69465</ele>
        <time>2021-10-24T12:27:37.000Z</time>
      </trkpt>
      <trkpt lat="45.76894" lon="4.63522">
        <ele>711.1271</ele>
        <time>2021-10-24T12:28:37.000Z</time>
      </trkpt>
      <trkpt lat="45.76848" lon="4.63454">
        <ele>710.53276</ele>
        <time>2021-10-24T12:29:38.000Z</time>
      </trkpt>
      <trkpt lat="45.76834" lon="4.63371">
        <ele>715.96855</ele>
        <time>2021-10-24T12:30:37.000Z</time>
      </trkpt>
      <trkpt lat="45.76769" lon="4.63279">
        <ele>716.35652</ele>
        <time>2021-10-24T12:31:37.000Z</time>
      </trkpt>
      <trkpt lat="45.76747" lon="4.63229">
        <ele>719.97294</ele>
        <time>2021-10-24T12:32:37.000Z</time>
      </trkpt>
      <trkpt lat="45.76704" lon="4.63146">
        <ele>721.02876</ele>
        <time>2021-10-24T12:33:37.000Z</time>
      </trkpt>
      <trkpt lat="45.76651" lon="4.63092">
        <ele>719.24903</ele>
        <time>2021-10-24T12:34:36.000Z</time>
      </trkpt>
      <trkpt lat="45.76575" lon="4.63059">
        <ele>724.81614</ele>
        <time>2021-10-24T12:35:35.000Z</time>
      </trkpt>
      <trkpt lat="45.76582" lon="4.63042">
        <ele>728.32563</ele>
        <time>2021-10-24T12:36:46.000Z</time>
      </trkpt>
      <trkpt lat="45.76584" lon="4.63079">
        <ele>719.51194</ele>
        <time>2021-10-24T12:37:40.000Z</time>
      </trkpt>
      <trkpt lat="45.76478" lon="4.63059">
        <ele>725.14108</ele>
        <time>2021-10-24T12:39:36.000Z</time>
      </trkpt>
      <trkpt lat="45.76421" lon="4.63053">
        <ele>726.23673</ele>
        <time>2021-10-24T12:40:37.000Z</time>
      </trkpt>
      <trkpt lat="45.76373" lon="4.62985">
        <ele>723.88289</ele>
        <time>2021-10-24T12:41:36.000Z</time>
      </trkpt>
      <trkpt lat="45.7634" lon="4.62968">
        <ele>722.05657</ele>
        <time>2021-10-24T12:42:37.000Z</time>
      </trkpt>
      <trkpt lat="45.76284" lon="4.6289">
        <ele>714.83102</ele>
        <time>2021-10-24T12:43:38.000Z</time>
      </trkpt>
      <trkpt lat="45.76276" lon="4.62886">
        <ele>714.72765</ele>
        <time>2021-10-24T12:45:00.000Z</time>
      </trkpt>
      <trkpt lat="45.76276" lon="4.62883">
        <ele>714.84833</ele>
        <time>2021-10-24T12:45:40.000Z</time>
      </trkpt>
      <trkpt lat="45.76262" lon="4.62874">
        <ele>715.51079</ele>
        <time>2021-10-24T12:46:01.000Z</time>
      </trkpt>
      <trkpt lat="45.762" lon="4.62853">
        <ele>718.05245</ele>
        <time>2021-10-24T12:47:17.000Z</time>
      </trkpt>
      <trkpt lat="45.76088" lon="4.62791">
        <ele>722.66046</ele>
        <time>2021-10-24T12:51:16.000Z</time>
      </trkpt>
      <trkpt lat="45.76061" lon="4.62855">
        <ele>722.42343</ele>
        <time>2021-10-24T12:52:16.000Z</time>
      </trkpt>
      <trkpt lat="45.76049" lon="4.62849">
        <ele>725.55973</ele>
        <time>2021-10-24T12:53:16.000Z</time>
      </trkpt>
      <trkpt lat="45.76064" lon="4.628">
        <ele>725.16858</ele>
        <time>2021-10-24T12:54:17.000Z</time>
      </trkpt>
      <trkpt lat="45.76067" lon="4.62694">
        <ele>739.89791</ele>
        <time>2021-10-24T12:55:17.000Z</time>
      </trkpt>
      <trkpt lat="45.76125" lon="4.62679">
        <ele>739.40447</ele>
        <time>2021-10-24T12:56:16.000Z</time>
      </trkpt>
      <trkpt lat="45.7609" lon="4.62688">
        <ele>738.61636</ele>
        <time>2021-10-24T12:57:16.000Z</time>
      </trkpt>
      <trkpt lat="45.76033" lon="4.62662">
        <ele>752.1172</ele>
        <time>2021-10-24T12:58:16.000Z</time>
      </trkpt>
      <trkpt lat="45.76005" lon="4.62729">
        <ele>750.94668</ele>
        <time>2021-10-24T13:00:13.000Z</time>
      </trkpt>
      <trkpt lat="45.75973" lon="4.62779">
        <ele>753.68708</ele>
        <time>2021-10-24T13:01:17.000Z</time>
      </trkpt>
      <trkpt lat="45.7597" lon="4.62783">
        <ele>753.70464</ele>
        <time>2021-10-24T13:03:06.000Z</time>
      </trkpt>
      <trkpt lat="45.75958" lon="4.62806">
        <ele>752.18922</ele>
        <time>2021-10-24T13:03:26.000Z</time>
      </trkpt>
      <trkpt lat="45.75938" lon="4.62812">
        <ele>753.4013</ele>
        <time>2021-10-24T13:03:47.000Z</time>
      </trkpt>
      <trkpt lat="45.75835" lon="4.62817">
        <ele>752.36581</ele>
        <time>2021-10-24T13:05:01.000Z</time>
      </trkpt>
      <trkpt lat="45.75776" lon="4.6278">
        <ele>757.08814</ele>
        <time>2021-10-24T13:06:02.000Z</time>
      </trkpt>
      <trkpt lat="45.75696" lon="4.6268">
        <ele>750.38497</ele>
        <time>2021-10-24T13:08:01.000Z</time>
      </trkpt>
      <trkpt lat="45.75697" lon="4.62576">
        <ele>755.03046</ele>
        <time>2021-10-24T13:09:01.000Z</time>
      </trkpt>
      <trkpt lat="45.75684" lon="4.62493">
        <ele>752.17</ele>
        <time>2021-10-24T13:10:01.000Z</time>
      </trkpt>
      <trkpt lat="45.75651" lon="4.62395">
        <ele>742.3921</ele>
        <time>2021-10-24T13:11:02.000Z</time>
      </trkpt>
      <trkpt lat="45.757" lon="4.62319">
        <ele>761.1146</ele>
        <time>2021-10-24T13:12:01.000Z</time>
      </trkpt>
      <trkpt lat="45.75681" lon="4.62262">
        <ele>759.45987</ele>
        <time>2021-10-24T13:13:02.000Z</time>
      </trkpt>
      <trkpt lat="45.75674" lon="4.62179">
        <ele>762.04748</ele>
        <time>2021-10-24T13:14:00.000Z</time>
      </trkpt>
      <trkpt lat="45.75684" lon="4.62082">
        <ele>761.88457</ele>
        <time>2021-10-24T13:14:59.000Z</time>
      </trkpt>
      <trkpt lat="45.75693" lon="4.62147">
        <ele>763.89588</ele>
        <time>2021-10-24T13:16:59.000Z</time>
      </trkpt>
      <trkpt lat="45.75694" lon="4.62143">
        <ele>763.87305</ele>
        <time>2021-10-24T13:18:00.000Z</time>
      </trkpt>
      <trkpt lat="45.75674" lon="4.62031">
        <ele>760.33767</ele>
        <time>2021-10-24T13:19:00.000Z</time>
      </trkpt>
      <trkpt lat="45.75667" lon="4.61983">
        <ele>759.07957</ele>
        <time>2021-10-24T13:20:00.000Z</time>
      </trkpt>
      <trkpt lat="45.7565" lon="4.6185">
        <ele>755.50605</ele>
        <time>2021-10-24T13:21:02.000Z</time>
      </trkpt>
      <trkpt lat="45.75608" lon="4.61851">
        <ele>752.03314</ele>
        <time>2021-10-24T13:21:58.000Z</time>
      </trkpt>
      <trkpt lat="45.75573" lon="4.61805">
        <ele>749.096</ele>
        <time>2021-10-24T13:22:59.000Z</time>
      </trkpt>
      <trkpt lat="45.75601" lon="4.61797">
        <ele>754.33755</ele>
        <time>2021-10-24T13:24:00.000Z</time>
      </trkpt>
      <trkpt lat="45.75601" lon="4.61797">
        <ele>754.33755</ele>
        <time>2021-10-24T13:24:00.000Z</time>
      </trkpt>
      <trkpt lat="45.75607" lon="4.61782">
        <ele>755.26575</ele>
        <time>2021-10-24T13:24:59.000Z</time>
      </trkpt>
      <trkpt lat="45.75644" lon="4.6178">
        <ele>753.79287</ele>
        <time>2021-10-24T13:25:59.000Z</time>
      </trkpt>
      <trkpt lat="45.75603" lon="4.61766">
        <ele>755.76356</ele>
        <time>2021-10-24T13:27:01.000Z</time>
      </trkpt>
      <trkpt lat="45.75636" lon="4.61666">
        <ele>753.60925</ele>
        <time>2021-10-24T13:28:01.000Z</time>
      </trkpt>
      <trkpt lat="45.75574" lon="4.6179">
        <ele>751.80149</ele>
        <time>2021-10-24T13:29:02.000Z</time>
      </trkpt>
      <trkpt lat="45.7562" lon="4.61772">
        <ele>755.21944</ele>
        <time>2021-10-24T13:30:05.000Z</time>
      </trkpt>
      <trkpt lat="45.75578" lon="4.61818">
        <ele>748.47778</ele>
        <time>2021-10-24T13:31:01.000Z</time>
      </trkpt>
      <trkpt lat="45.75555" lon="4.61805">
        <ele>743.56133</ele>
        <time>2021-10-24T13:32:02.000Z</time>
      </trkpt>
      <trkpt lat="45.75584" lon="4.61809">
        <ele>750.91781</ele>
        <time>2021-10-24T13:33:01.000Z</time>
      </trkpt>
      <trkpt lat="45.75602" lon="4.61863">
        <ele>750.00615</ele>
        <time>2021-10-24T13:33:59.000Z</time>
      </trkpt>
      <trkpt lat="45.75621" lon="4.61852">
        <ele>753.93166</ele>
        <time>2021-10-24T13:34:59.000Z</time>
      </trkpt>
      <trkpt lat="45.75657" lon="4.61906">
        <ele>756.22447</ele>
        <time>2021-10-24T13:35:59.000Z</time>
      </trkpt>
      <trkpt lat="45.75671" lon="4.61985">
        <ele>759.38462</ele>
        <time>2021-10-24T13:36:59.000Z</time>
      </trkpt>
      <trkpt lat="45.7568" lon="4.62049">
        <ele>761.06837</ele>
        <time>2021-10-24T13:37:59.000Z</time>
      </trkpt>
      <trkpt lat="45.75688" lon="4.6218">
        <ele>763.84059</ele>
        <time>2021-10-24T13:38:59.000Z</time>
      </trkpt>
      <trkpt lat="45.75695" lon="4.62221">
        <ele>764.29624</ele>
        <time>2021-10-24T13:39:59.000Z</time>
      </trkpt>
      <trkpt lat="45.75691" lon="4.62312">
        <ele>759.21463</ele>
        <time>2021-10-24T13:40:59.000Z</time>
      </trkpt>
      <trkpt lat="45.75699" lon="4.62444">
        <ele>758.80382</ele>
        <time>2021-10-24T13:42:00.000Z</time>
      </trkpt>
      <trkpt lat="45.75737" lon="4.62607">
        <ele>768.05625</ele>
        <time>2021-10-24T13:43:59.000Z</time>
      </trkpt>
      <trkpt lat="45.75716" lon="4.62705">
        <ele>753.59023</ele>
        <time>2021-10-24T13:44:59.000Z</time>
      </trkpt>
      <trkpt lat="45.75759" lon="4.62787">
        <ele>752.19211</ele>
        <time>2021-10-24T13:45:59.000Z</time>
      </trkpt>
      <trkpt lat="45.75827" lon="4.62814">
        <ele>753.10328</ele>
        <time>2021-10-24T13:47:00.000Z</time>
      </trkpt>
      <trkpt lat="45.75881" lon="4.6287">
        <ele>740.78849</ele>
        <time>2021-10-24T13:48:00.000Z</time>
      </trkpt>
      <trkpt lat="45.75976" lon="4.62806">
        <ele>749.57383</ele>
        <time>2021-10-24T13:48:59.000Z</time>
      </trkpt>
      <trkpt lat="45.76014" lon="4.62776">
        <ele>742.08987</ele>
        <time>2021-10-24T13:50:00.000Z</time>
      </trkpt>
      <trkpt lat="45.76139" lon="4.62783">
        <ele>720.15313</ele>
        <time>2021-10-24T13:54:51.000Z</time>
      </trkpt>
      <trkpt lat="45.7636" lon="4.62968">
        <ele>722.84609</ele>
        <time>2021-10-24T13:57:59.000Z</time>
      </trkpt>
      <trkpt lat="45.76391" lon="4.63051">
        <ele>725.59891</ele>
        <time>2021-10-24T13:58:59.000Z</time>
      </trkpt>
      <trkpt lat="45.76489" lon="4.63067">
        <ele>723.77329</ele>
        <time>2021-10-24T14:00:00.000Z</time>
      </trkpt>
      <trkpt lat="45.76544" lon="4.63065">
        <ele>722.96001</ele>
        <time>2021-10-24T14:01:00.000Z</time>
      </trkpt>
      <trkpt lat="45.766" lon="4.63079">
        <ele>719.72894</ele>
        <time>2021-10-24T14:01:59.000Z</time>
      </trkpt>
      <trkpt lat="45.76731" lon="4.6317">
        <ele>724.96679</ele>
        <time>2021-10-24T14:03:59.000Z</time>
      </trkpt>
      <trkpt lat="45.76772" lon="4.63251">
        <ele>721.06239</ele>
        <time>2021-10-24T14:05:01.000Z</time>
      </trkpt>
      <trkpt lat="45.76806" lon="4.63337">
        <ele>714.92853</ele>
        <time>2021-10-24T14:06:01.000Z</time>
      </trkpt>
      <trkpt lat="45.76867" lon="4.63411">
        <ele>716.81602</ele>
        <time>2021-10-24T14:07:00.000Z</time>
      </trkpt>
      <trkpt lat="45.76877" lon="4.63533">
        <ele>708.39825</ele>
        <time>2021-10-24T14:08:02.000Z</time>
      </trkpt>
      <trkpt lat="45.76909" lon="4.63581">
        <ele>708.52123</ele>
        <time>2021-10-24T14:09:00.000Z</time>
      </trkpt>
      <trkpt lat="45.76963" lon="4.63639">
        <ele>708.12139</ele>
        <time>2021-10-24T14:10:03.000Z</time>
      </trkpt>
      <trkpt lat="45.76982" lon="4.63687">
        <ele>704.00758</ele>
        <time>2021-10-24T14:11:00.000Z</time>
      </trkpt>
      <trkpt lat="45.7707" lon="4.63694">
        <ele>689.87797</ele>
        <time>2021-10-24T14:12:01.000Z</time>
      </trkpt>
      <trkpt lat="45.77104" lon="4.63719">
        <ele>682.5024</ele>
        <time>2021-10-24T14:13:01.000Z</time>
      </trkpt>
      <trkpt lat="45.77183" lon="4.63709">
        <ele>675.27883</ele>
        <time>2021-10-24T14:14:01.000Z</time>
      </trkpt>
      <trkpt lat="45.7724" lon="4.63722">
        <ele>669.78774</ele>
        <time>2021-10-24T14:15:00.000Z</time>
      </trkpt>
      <trkpt lat="45.77246" lon="4.63795">
        <ele>660.19295</ele>
        <time>2021-10-24T14:16:00.000Z</time>
      </trkpt>
      <trkpt lat="45.7731" lon="4.63852">
        <ele>652.01409</ele>
        <time>2021-10-24T14:17:00.000Z</time>
      </trkpt>
      <trkpt lat="45.7736" lon="4.63825">
        <ele>647.79017</ele>
        <time>2021-10-24T14:18:00.000Z</time>
      </trkpt>
      <trkpt lat="45.77408" lon="4.63791">
        <ele>640.65174</ele>
        <time>2021-10-24T14:19:01.000Z</time>
      </trkpt>
      <trkpt lat="45.77492" lon="4.63751">
        <ele>624.16926</ele>
        <time>2021-10-24T14:20:00.000Z</time>
      </trkpt>
      <trkpt lat="45.77526" lon="4.63794">
        <ele>616.32703</ele>
        <time>2021-10-24T14:20:59.000Z</time>
      </trkpt>
      <trkpt lat="45.77568" lon="4.63843">
        <ele>605.37081</ele>
        <time>2021-10-24T14:22:01.000Z</time>
      </trkpt>
    </trkseg>
  </trk>
</gpx>